Time;durP1;ratioP1;P1;durP2;ratioP2;P2;SDS_P1;SDS_P2;PMS_P1;PMS_P2;Temp;Humidity;BMP_temperature;BMP_pressure;BME280_temperature;BME280_humidity;BME280_pressure;Samples;Min_cycle;Max_cycle;Signal;HPM_P1;HPM_P2
2022/09/22 00:01:39;;;;;;;2.53;2.05;;;;;;;-140.66;100.00;55571.53;5057021;28;20047;-74
2022/09/22 00:04:25;;;;;;;2.95;2.20;;;;;;;-140.66;100.00;55571.53;5056947;28;20024;-74
2022/09/22 00:07:11;;;;;;;3.95;2.58;;;;;;;-140.66;100.00;55571.53;5057136;28;20103;-75
2022/09/22 00:09:57;;;;;;;2.40;2.20;;;;;;;-140.66;100.00;55571.53;5057047;28;20028;-75
2022/09/22 00:12:46;;;;;;;3.15;2.22;;;;;;;-140.66;100.00;55571.53;5056848;28;20021;-74
2022/09/22 00:15:33;;;;;;;2.17;1.90;;;;;;;-140.66;100.00;55571.53;5065848;28;20033;-75
2022/09/22 00:18:19;;;;;;;3.10;2.03;;;;;;;-140.66;100.00;55571.53;5059435;28;20029;-75
2022/09/22 00:21:08;;;;;;;2.90;2.13;;;;;;;-140.66;100.00;55571.53;5057122;28;20032;-75
2022/09/22 00:23:54;;;;;;;2.30;2.03;;;;;;;-140.66;100.00;55571.53;5057138;28;20040;-74
2022/09/22 00:26:40;;;;;;;2.70;2.17;;;;;;;-140.66;100.00;55571.53;5055786;28;20028;-74
2022/09/22 00:29:27;;;;;;;3.10;2.42;;;;;;;-140.66;100.00;55571.53;5041011;28;20043;-75
2022/09/22 00:32:13;;;;;;;3.05;2.30;;;;;;;-140.66;100.00;55571.53;5055803;28;20040;-75
2022/09/22 00:34:59;;;;;;;2.83;2.13;;;;;;;-140.66;100.00;55571.53;5056085;28;20456;-75
2022/09/22 00:37:45;;;;;;;2.78;2.20;;;;;;;-140.66;100.00;55571.53;5056410;28;20036;-75
2022/09/22 00:40:32;;;;;;;3.42;2.47;;;;;;;-140.66;100.00;55571.53;5041608;28;20024;-75
2022/09/22 00:43:24;;;;;;;3.33;2.20;;;;;;;-140.66;100.00;55571.53;5055953;28;20056;-74
2022/09/22 00:46:19;;;;;;;3.15;2.50;;;;;;;-140.66;100.00;55571.53;5055993;28;20048;-75
2022/09/22 00:49:07;;;;;;;2.88;2.45;;;;;;;-140.66;100.00;55571.53;5056360;28;20037;-74
2022/09/22 00:51:53;;;;;;;2.47;2.20;;;;;;;-140.66;100.00;55571.53;5056266;28;20040;-75
2022/09/22 00:54:39;;;;;;;2.72;2.30;;;;;;;-140.66;100.00;55571.53;5055608;28;20025;-73
2022/09/22 00:57:30;;;;;;;5.53;2.80;;;;;;;-140.66;100.00;55571.53;5056157;28;20025;-75
2022/09/22 01:00:16;;;;;;;3.63;2.85;;;;;;;-140.66;100.00;55571.53;5040599;28;20040;-77
2022/09/22 01:03:06;;;;;;;3.05;2.38;;;;;;;-140.66;100.00;55571.53;5056034;28;20028;-77
2022/09/22 01:05:56;;;;;;;2.80;2.30;;;;;;;-140.66;100.00;55571.53;5040316;28;20024;-74
2022/09/22 01:08:43;;;;;;;2.92;2.40;;;;;;;-140.66;100.00;55571.53;5055751;28;20137;-75
2022/09/22 01:11:29;;;;;;;3.45;2.42;;;;;;;-140.66;100.00;55571.53;5041448;28;20059;-74
2022/09/22 01:14:52;;;;;;;3.58;2.53;;;;;;;-140.66;100.00;55571.53;5055407;28;20025;-75
2022/09/22 01:17:44;;;;;;;6.43;2.60;;;;;;;-140.66;100.00;55571.53;5054301;28;20036;-75
2022/09/22 01:20:53;;;;;;;3.97;2.92;;;;;;;-140.66;100.00;55571.53;5040374;28;20111;-75
2022/09/22 01:24:12;;;;;;;6.22;3.80;;;;;;;-140.66;100.00;55571.53;5055256;28;20036;-75
2022/09/22 01:27:10;;;;;;;7.90;3.45;;;;;;;-140.66;100.00;55571.53;5055152;28;20063;-74
2022/09/22 01:30:18;;;;;;;5.40;3.22;;;;;;;-140.66;100.00;55571.53;5055343;28;20067;-74
2022/09/22 01:33:13;;;;;;;6.65;3.60;;;;;;;-140.66;100.00;55571.53;5055618;28;20468;-75
2022/09/22 01:36:06;;;;;;;5.63;3.97;;;;;;;-140.66;100.00;55571.53;5055013;28;20115;-75
2022/09/22 01:38:57;;;;;;;6.88;3.63;;;;;;;-140.66;100.00;55571.53;5055625;28;20028;-76
2022/09/22 01:42:10;;;;;;;5.25;3.40;;;;;;;-140.66;100.00;55571.53;5057510;28;20060;-75
2022/09/22 01:45:08;;;;;;;6.60;3.67;;;;;;;-140.66;100.00;55571.53;5041618;28;20017;-75
2022/09/22 01:48:01;;;;;;;5.93;3.30;;;;;;;-140.66;100.00;55571.53;5056530;28;20021;-76
2022/09/22 01:51:03;;;;;;;6.63;3.60;;;;;;;-140.66;100.00;55571.53;5057510;28;20445;-74
2022/09/22 01:54:21;;;;;;;5.10;3.65;;;;;;;-140.66;100.00;55571.53;5042731;28;20123;-75
2022/09/22 01:57:20;;;;;;;4.65;3.08;;;;;;;-140.66;100.00;55571.53;5059728;28;20040;-75
2022/09/22 02:00:08;;;;;;;3.85;2.88;;;;;;;-140.66;100.00;55571.53;5060575;28;20025;-74
2022/09/22 02:03:28;;;;;;;5.90;3.33;;;;;;;-140.66;100.00;55571.53;5059836;28;20052;-76
2022/09/22 02:06:43;;;;;;;4.15;3.30;;;;;;;-140.66;100.00;55571.53;5059646;28;20092;-74
2022/09/22 02:09:33;;;;;;;6.25;3.63;;;;;;;-140.66;100.00;55571.53;5061215;28;20029;-73
2022/09/22 02:12:19;;;;;;;5.13;3.58;;;;;;;-140.66;100.00;55571.53;5059887;28;20035;-75
2022/09/22 02:15:58;;;;;;;5.95;4.15;;;;;;;-140.66;100.00;55571.53;5059944;28;20021;-74
2022/09/22 02:18:19;;;;;;;6.82;5.03;;;;;;;-140.66;100.00;55571.53;5060502;28;20055;-73
2022/09/22 02:21:05;;;;;;;10.10;6.85;;;;;;;-140.66;100.00;55571.53;5060634;28;20469;-74
2022/09/22 02:23:50;;;;;;;10.98;6.88;;;;;;;-140.66;100.00;55571.53;5043649;28;20028;-74
2022/09/22 02:26:36;;;;;;;13.55;7.72;;;;;;;-140.66;100.00;55571.53;5042936;28;20110;-75
2022/09/22 02:29:26;;;;;;;10.80;6.97;;;;;;;-140.66;100.00;55571.53;5056366;28;20337;-75
2022/09/22 02:32:15;;;;;;;8.65;6.00;;;;;;;-140.66;100.00;55571.53;5040236;28;20062;-76
2022/09/22 02:35:01;;;;;;;9.35;6.30;;;;;;;-140.66;100.00;55571.53;5059106;28;20025;-74
2022/09/22 02:37:59;;;;;;;9.57;5.68;;;;;;;-140.66;100.00;55571.53;5060092;28;20044;-77
2022/09/22 02:41:07;;;;;;;9.70;5.60;;;;;;;-140.66;100.00;55571.53;5044016;28;20445;-75
2022/09/22 02:44:12;;;;;;;8.52;5.45;;;;;;;-140.66;100.00;55571.53;5058559;28;20523;-74
2022/09/22 02:47:09;;;;;;;8.82;5.95;;;;;;;-140.66;100.00;55571.53;5042067;28;20347;-75
2022/09/22 02:49:56;;;;;;;9.57;5.03;;;;;;;-140.66;100.00;55571.53;5059414;28;20044;-75
2022/09/22 02:52:42;;;;;;;8.13;4.72;;;;;;;-140.66;100.00;55571.53;5058999;28;20029;-75
2022/09/22 02:55:28;;;;;;;6.13;4.40;;;;;;;-140.66;100.00;55571.53;5058412;28;20052;-75
2022/09/22 02:58:15;;;;;;;8.02;4.30;;;;;;;-140.66;100.00;55571.53;5043889;28;20033;-74
2022/09/22 03:01:01;;;;;;;7.40;4.13;;;;;;;-140.66;100.00;55571.53;5058432;28;20035;-75
2022/09/22 03:03:47;;;;;;;4.15;3.28;;;;;;;-140.66;100.00;55571.53;5043457;28;20159;-75
2022/09/22 03:06:33;;;;;;;4.18;3.35;;;;;;;-140.66;100.00;55571.53;5058512;28;20021;-75
2022/09/22 03:09:19;;;;;;;4.43;3.30;;;;;;;-140.66;100.00;55571.53;5058388;28;20453;-75
2022/09/22 03:12:05;;;;;;;4.55;3.25;;;;;;;-140.66;100.00;55571.53;5058543;28;20425;-75
2022/09/22 03:14:51;;;;;;;6.93;3.60;;;;;;;-140.66;100.00;55571.53;5042902;28;20021;-75
2022/09/22 03:17:37;;;;;;;6.50;4.00;;;;;;;-140.66;100.00;55571.53;5043019;28;20106;-74
2022/09/22 03:20:23;;;;;;;4.25;3.60;;;;;;;-140.66;100.00;55571.53;5058409;28;20036;-74
2022/09/22 03:23:09;;;;;;;6.57;4.07;;;;;;;-140.66;100.00;55571.53;5058379;28;20116;-75
2022/09/22 03:25:54;;;;;;;5.72;3.47;;;;;;;-140.66;100.00;55571.53;5057774;28;20452;-76
2022/09/22 03:28:42;;;;;;;6.78;3.25;;;;;;;-140.66;100.00;55571.53;5057546;28;20094;-76
2022/09/22 03:31:28;;;;;;;3.85;3.25;;;;;;;-140.66;100.00;55571.53;5042689;28;20116;-76
2022/09/22 03:34:14;;;;;;;4.72;3.30;;;;;;;-140.66;100.00;55571.53;5057874;28;20025;-76
2022/09/22 03:37:00;;;;;;;5.90;3.45;;;;;;;-140.66;100.00;55571.53;5056880;28;20025;-74
2022/09/22 03:39:45;;;;;;;3.80;3.00;;;;;;;-140.66;100.00;55571.53;5058325;28;20039;-74
2022/09/22 03:42:33;;;;;;;5.10;3.30;;;;;;;-140.66;100.00;55571.53;5058135;28;20104;-75
2022/09/22 03:45:19;;;;;;;4.18;3.25;;;;;;;-140.66;100.00;55571.53;5057534;28;20111;-76
2022/09/22 03:48:05;;;;;;;3.95;3.28;;;;;;;-140.66;100.00;55571.53;5057717;28;20037;-75
2022/09/22 03:50:51;;;;;;;3.88;3.03;;;;;;;-140.66;100.00;55571.53;5057701;28;20172;-75
2022/09/22 03:53:37;;;;;;;4.13;3.30;;;;;;;-140.66;100.00;55571.53;5042630;28;20416;-74
2022/09/22 03:56:23;;;;;;;4.97;3.60;;;;;;;-140.66;100.00;55571.53;5056813;28;20361;-74
2022/09/22 03:59:10;;;;;;;4.32;3.42;;;;;;;-140.66;100.00;55571.53;5041591;28;20035;-75
2022/09/22 04:01:56;;;;;;;3.67;3.05;;;;;;;-140.66;100.00;55571.53;5058062;28;20575;-74
2022/09/22 04:04:41;;;;;;;4.65;3.45;;;;;;;-140.66;100.00;55571.53;5065532;28;20025;-75
2022/09/22 04:07:27;;;;;;;5.03;3.88;;;;;;;-140.66;100.00;55571.53;5067207;28;20465;-75
2022/09/22 04:10:13;;;;;;;5.20;3.60;;;;;;;-140.66;100.00;55571.53;5057182;28;20191;-76
2022/09/22 04:12:59;;;;;;;5.97;3.40;;;;;;;-140.66;100.00;55571.53;5057075;28;20021;-75
2022/09/22 04:15:45;;;;;;;7.53;3.30;;;;;;;-140.66;100.00;55571.53;5056852;28;20029;-76
2022/09/22 04:18:31;;;;;;;4.32;3.30;;;;;;;-140.66;100.00;55571.53;5056878;28;20024;-76
2022/09/22 04:21:17;;;;;;;4.15;3.13;;;;;;;-140.66;100.00;55571.53;5057042;28;20029;-76
2022/09/22 04:24:03;;;;;;;5.30;3.75;;;;;;;-140.66;100.00;55571.53;5042081;28;20029;-76
2022/09/22 04:26:49;;;;;;;5.38;3.58;;;;;;;-140.66;100.00;55571.53;5043791;28;20021;-75
2022/09/22 04:29:34;;;;;;;5.07;3.80;;;;;;;-140.66;100.00;55571.53;5059912;28;20454;-74
2022/09/22 04:32:20;;;;;;;5.00;3.60;;;;;;;-140.66;100.00;55571.53;5071885;28;20073;-75
2022/09/22 04:35:07;;;;;;;5.57;4.20;;;;;;;-140.66;100.00;55571.53;5062816;28;20017;-75
2022/09/22 04:37:54;;;;;;;5.00;3.45;;;;;;;-140.66;100.00;55571.53;5064414;28;20092;-74
2022/09/22 04:40:40;;;;;;;6.13;3.85;;;;;;;-140.66;100.00;55571.53;5063398;28;20063;-74
2022/09/22 04:43:26;;;;;;;7.13;4.10;;;;;;;-140.66;100.00;55571.53;5066473;28;20233;-75
2022/09/22 04:46:11;;;;;;;6.80;4.53;;;;;;;-140.66;100.00;55571.53;5042393;28;20063;-75
2022/09/22 04:48:57;;;;;;;6.20;4.50;;;;;;;-140.66;100.00;55571.53;5055999;28;20112;-75
2022/09/22 04:51:43;;;;;;;4.97;3.72;;;;;;;-140.66;100.00;55571.53;5056490;28;20033;-74
2022/09/22 04:54:29;;;;;;;6.40;4.30;;;;;;;-140.66;100.00;55571.53;5060380;28;20024;-75
2022/09/22 04:57:15;;;;;;;5.55;4.45;;;;;;;-140.66;100.00;55571.53;5056350;28;20060;-75
2022/09/22 05:00:01;;;;;;;6.03;3.80;;;;;;;-140.66;100.00;55571.53;5056122;28;20357;-75
2022/09/22 05:02:47;;;;;;;5.55;3.65;;;;;;;-140.66;100.00;55571.53;5040394;28;20485;-76
2022/09/22 05:05:33;;;;;;;5.30;4.03;;;;;;;-140.66;100.00;55571.53;5040220;28;20091;-76
2022/09/22 05:08:19;;;;;;;5.70;4.18;;;;;;;-140.66;100.00;55571.53;5040294;28;20033;-75
2022/09/22 05:11:08;;;;;;;6.32;4.25;;;;;;;-140.66;100.00;55571.53;5055155;28;20068;-75
2022/09/22 05:13:54;;;;;;;5.35;4.13;;;;;;;-140.66;100.00;55571.53;5055830;28;20037;-75
2022/09/22 05:16:40;;;;;;;4.60;3.80;;;;;;;-140.66;100.00;55571.53;5055818;28;20025;-76
2022/09/22 05:19:26;;;;;;;5.75;4.35;;;;;;;-140.66;100.00;55571.53;5055683;28;20032;-74
2022/09/22 05:22:12;;;;;;;9.50;4.10;;;;;;;-140.66;100.00;55571.53;5055059;28;20020;-75
2022/09/22 05:24:58;;;;;;;6.88;4.57;;;;;;;-140.66;100.00;55571.53;5055198;28;20116;-74
2022/09/22 05:27:50;;;;;;;5.47;4.47;;;;;;;-140.66;100.00;55571.53;5041457;28;20481;-76
2022/09/22 05:30:35;;;;;;;6.85;4.50;;;;;;;-140.66;100.00;55571.53;5055770;28;20131;-74
2022/09/22 05:33:21;;;;;;;7.30;4.90;;;;;;;-140.66;100.00;55571.53;5055745;28;20433;-75
2022/09/22 05:36:07;;;;;;;6.20;4.45;;;;;;;-140.66;100.00;55571.53;5055165;28;20124;-74
2022/09/22 05:38:53;;;;;;;5.85;4.68;;;;;;;-140.66;100.00;55571.53;5055618;28;20461;-75
2022/09/22 05:41:38;;;;;;;7.43;4.88;;;;;;;-140.66;100.00;55571.53;5054917;28;20056;-75
2022/09/22 05:44:24;;;;;;;7.68;4.72;;;;;;;-140.66;100.00;55571.53;5055021;28;20451;-75
2022/09/22 05:47:10;;;;;;;15.45;10.27;;;;;;;-140.66;100.00;55571.53;5054982;28;20025;-75
2022/09/22 05:49:55;;;;;;;9.50;6.43;;;;;;;-140.66;100.00;55571.53;5054417;28;20465;-75
2022/09/22 05:52:41;;;;;;;9.38;5.60;;;;;;;-140.66;100.00;55571.53;5055157;28;20111;-75
2022/09/22 05:55:27;;;;;;;8.13;5.55;;;;;;;-140.66;100.00;55571.53;5054405;28;20052;-75
2022/09/22 05:58:13;;;;;;;7.22;5.50;;;;;;;-140.66;100.00;55571.53;5040404;28;20419;-74
2022/09/22 06:00:58;;;;;;;6.47;4.65;;;;;;;-140.66;100.00;55571.53;5055422;28;20060;-75
2022/09/22 06:03:44;;;;;;;7.18;4.72;;;;;;;-140.66;100.00;55571.53;5040944;28;20035;-74
2022/09/22 06:06:30;;;;;;;7.40;4.80;;;;;;;-140.66;100.00;55571.53;5054525;28;20020;-74
2022/09/22 06:09:16;;;;;;;14.70;9.35;;;;;;;-140.66;100.00;55571.53;5054491;28;20033;-74
2022/09/22 06:12:02;;;;;;;7.93;5.60;;;;;;;-140.66;100.00;55571.53;5054826;28;20052;-74
2022/09/22 06:14:48;;;;;;;6.60;4.80;;;;;;;-140.66;100.00;55571.53;5039780;28;20072;-74
2022/09/22 06:17:33;;;;;;;8.80;4.63;;;;;;;-140.66;100.00;55571.53;5053626;28;20149;-74
2022/09/22 06:20:19;;;;;;;5.65;4.30;;;;;;;-140.66;100.00;55571.53;5054427;28;20080;-75
2022/09/22 06:23:05;;;;;;;5.60;4.55;;;;;;;-140.66;100.00;55571.53;5054306;28;20442;-75
2022/09/22 06:25:58;;;;;;;6.50;5.10;;;;;;;-140.66;100.00;55571.53;5054211;28;20025;-75
2022/09/22 06:28:43;;;;;;;6.15;4.85;;;;;;;-140.66;100.00;55571.53;5054286;28;20183;-75
2022/09/22 06:31:29;;;;;;;16.60;10.63;;;;;;;-140.66;100.00;55571.53;5054655;28;20020;-75
2022/09/22 06:34:15;;;;;;;10.43;7.20;;;;;;;-140.66;100.00;55571.53;5054422;28;20033;-75
2022/09/22 06:37:01;;;;;;;6.85;4.88;;;;;;;-140.66;100.00;55571.53;5039326;28;20088;-73
2022/09/22 06:39:47;;;;;;;8.18;5.50;;;;;;;-140.66;100.00;55571.53;5039997;28;20381;-74
2022/09/22 06:42:33;;;;;;;10.57;5.65;;;;;;;-140.66;100.00;55571.53;5054303;28;20033;-76
2022/09/22 06:45:19;;;;;;;11.55;5.93;;;;;;;-140.66;100.00;55571.53;5053938;28;20029;-75
2022/09/22 06:48:04;;;;;;;6.35;5.13;;;;;;;-140.66;100.00;55571.53;5038980;28;20014;-75
2022/09/22 06:50:52;;;;;;;10.40;5.40;;;;;;;-140.66;100.00;55571.53;5054221;28;20040;-75
2022/09/22 06:53:37;;;;;;;9.40;4.80;;;;;;;-140.66;100.00;55571.53;5053898;28;20029;-74
2022/09/22 06:56:25;;;;;;;7.30;4.40;;;;;;;-140.66;100.00;55571.53;5053292;28;20068;-75
2022/09/22 06:59:12;;;;;;;7.63;5.15;;;;;;;-140.66;100.00;55571.53;5053606;28;20029;-75
2022/09/22 07:01:58;;;;;;;8.32;6.22;;;;;;;-140.66;100.00;55571.53;5054357;28;20032;-74
2022/09/22 07:04:45;;;;;;;6.35;4.88;;;;;;;-140.66;100.00;55571.53;5054478;28;20025;-75
2022/09/22 07:07:31;;;;;;;6.50;4.85;;;;;;;-140.66;100.00;55571.53;5054186;28;20079;-75
2022/09/22 07:10:16;;;;;;;6.45;4.65;;;;;;;-140.66;100.00;55571.53;5054337;28;20032;-74
2022/09/22 07:13:04;;;;;;;6.57;4.65;;;;;;;-140.66;100.00;55571.53;5053610;28;20031;-75
2022/09/22 07:15:50;;;;;;;6.75;4.93;;;;;;;-140.66;100.00;55571.53;5053839;28;20472;-76
2022/09/22 07:18:40;;;;;;;7.15;5.03;;;;;;;-140.66;100.00;55571.53;5053857;28;20032;-74
2022/09/22 07:21:31;;;;;;;7.47;5.03;;;;;;;-140.66;100.00;55571.53;5054187;28;20028;-74
2022/09/22 07:24:17;;;;;;;6.43;4.97;;;;;;;-140.66;100.00;55571.53;5053660;28;20445;-75
2022/09/22 07:27:05;;;;;;;6.10;4.97;;;;;;;-140.66;100.00;55571.53;5039203;28;20029;-76
2022/09/22 07:29:53;;;;;;;8.27;5.10;;;;;;;-140.66;100.00;55571.53;5053804;28;20043;-75
2022/09/22 07:32:38;;;;;;;7.97;5.70;;;;;;;-140.66;100.00;55571.53;5053778;28;20037;-75
2022/09/22 07:35:27;;;;;;;10.80;5.28;;;;;;;-140.66;100.00;55571.53;5040614;28;20104;-76
2022/09/22 07:38:12;;;;;;;9.18;5.80;;;;;;;-140.66;100.00;55571.53;5042739;28;20542;-75
2022/09/22 07:41:00;;;;;;;10.70;5.63;;;;;;;-140.66;100.00;55571.53;5057681;28;20436;-75
2022/09/22 07:43:49;;;;;;;6.57;5.53;;;;;;;-140.66;100.00;55571.53;5057467;28;20025;-76
2022/09/22 07:46:34;;;;;;;7.25;5.38;;;;;;;-140.66;100.00;55571.53;5057601;28;20064;-78
2022/09/22 07:49:21;;;;;;;6.95;5.18;;;;;;;-140.66;100.00;55571.53;5056724;28;20033;-76
2022/09/22 07:52:06;;;;;;;7.00;5.35;;;;;;;-140.66;100.00;55571.53;5057527;28;20043;-76
2022/09/22 07:54:52;;;;;;;6.65;4.80;;;;;;;-140.66;100.00;55571.53;5056970;28;20024;-77
2022/09/22 07:57:38;;;;;;;8.70;5.40;;;;;;;-140.66;100.00;55571.53;5056847;28;20349;-76
2022/09/22 08:00:26;;;;;;;8.40;4.80;;;;;;;-140.66;100.00;55571.53;5041781;28;20024;-75
2022/09/22 08:03:12;;;;;;;6.18;4.53;;;;;;;-140.66;100.00;55571.53;5042228;28;20044;-76
2022/09/22 08:06:04;;;;;;;5.95;5.28;;;;;;;-140.66;100.00;55571.53;5057207;28;20021;-75
2022/09/22 08:08:54;;;;;;;5.15;4.22;;;;;;;-140.66;100.00;55571.53;5058284;28;20056;-75
2022/09/22 08:11:47;;;;;;;4.80;4.00;;;;;;;-140.66;100.00;55571.53;5057262;28;20032;-76
2022/09/22 08:14:33;;;;;;;5.28;3.70;;;;;;;-140.66;100.00;55571.53;5042421;28;20028;-77
2022/09/22 08:17:21;;;;;;;5.03;4.47;;;;;;;-140.66;100.00;55571.53;5042666;28;20032;-76
2022/09/22 08:20:08;;;;;;;5.45;4.75;;;;;;;-140.66;100.00;55571.53;5058689;28;20056;-76
2022/09/22 08:22:56;;;;;;;7.05;4.43;;;;;;;-140.66;100.00;55571.53;5059567;28;20029;-76
2022/09/22 08:25:42;;;;;;;5.35;4.00;;;;;;;-140.66;100.00;55571.53;5058045;28;20040;-76
2022/09/22 08:28:28;;;;;;;4.68;3.40;;;;;;;-140.66;100.00;55571.53;5043497;28;20107;-76
2022/09/22 08:31:16;;;;;;;3.40;3.10;;;;;;;-140.66;100.00;55571.53;5060374;28;20194;-77
2022/09/22 08:34:04;;;;;;;4.10;3.67;;;;;;;-140.66;100.00;55571.53;5064741;28;20086;-76
2022/09/22 08:36:50;;;;;;;6.72;3.30;;;;;;;-140.66;100.00;55571.53;5047246;28;20029;-77
2022/09/22 08:39:36;;;;;;;4.60;3.67;;;;;;;-140.66;100.00;55571.53;5062274;28;20025;-76
2022/09/22 08:42:22;;;;;;;8.85;6.55;;;;;;;-140.66;100.00;55571.53;5056768;28;20437;-76
2022/09/22 08:45:26;;;;;;;4.68;3.60;;;;;;;-140.66;100.00;55571.53;5055854;28;20029;-76
2022/09/22 08:51:52;;;;;;;7.43;3.63;;;;;;;-140.66;100.00;55571.53;5056142;28;20083;-76
2022/09/22 08:54:37;;;;;;;3.83;2.92;;;;;;;-140.66;100.00;55571.53;5041097;28;20041;-74
2022/09/22 08:57:26;;;;;;;5.63;3.45;;;;;;;-140.66;100.00;55571.53;5041722;28;20025;-74
2022/09/22 09:00:18;;;;;;;5.60;2.90;;;;;;;-140.66;100.00;55571.53;5042819;28;20078;-77
2022/09/22 09:03:16;;;;;;;5.45;3.38;;;;;;;-140.66;100.00;55571.53;5056262;28;20380;-75
2022/09/22 09:06:17;;;;;;;4.47;3.50;;;;;;;-140.66;100.00;55571.53;5056202;28;20025;-75
2022/09/22 09:09:32;;;;;;;4.07;3.15;;;;;;;-140.66;100.00;55571.53;5055872;28;20132;-77
2022/09/22 09:12:27;;;;;;;3.55;3.10;;;;;;;-140.66;100.00;55571.53;5056660;28;20028;-75
2022/09/22 09:15:12;;;;;;;4.05;3.13;;;;;;;-140.66;100.00;55571.53;5040309;28;20039;-74
2022/09/22 09:18:02;;;;;;;4.63;3.10;;;;;;;-140.66;100.00;55571.53;5055640;28;20025;-74
2022/09/22 09:20:51;;;;;;;4.10;2.88;;;;;;;-140.66;100.00;55571.53;5056064;28;20040;-75
2022/09/22 09:23:51;;;;;;;3.40;3.08;;;;;;;-140.66;100.00;55571.53;5041456;28;20178;-73
2022/09/22 09:26:37;;;;;;;3.17;2.70;;;;;;;-140.66;100.00;55571.53;5056033;28;20037;-75
2022/09/22 09:29:28;;;;;;;5.45;3.40;;;;;;;-140.66;100.00;55571.53;5056544;28;20029;-74
2022/09/22 09:32:27;;;;;;;4.50;3.08;;;;;;;-140.66;100.00;55571.53;5055811;28;20037;-74
2022/09/22 09:35:25;;;;;;;4.00;3.28;;;;;;;-140.66;100.00;55571.53;5040711;28;20028;-75
2022/09/22 09:38:16;;;;;;;3.13;2.65;;;;;;;-140.66;100.00;55571.53;5055671;28;20353;-74
2022/09/22 09:41:16;;;;;;;3.88;3.00;;;;;;;-140.66;100.00;55571.53;5055270;28;20029;-75
2022/09/22 09:44:04;;;;;;;3.95;2.60;;;;;;;-140.66;100.00;55571.53;5054893;28;20033;-75
2022/09/22 09:46:55;;;;;;;6.63;2.75;;;;;;;-140.66;100.00;55571.53;5055253;28;20031;-74
2022/09/22 09:49:41;;;;;;;8.25;3.30;;;;;;;-140.66;100.00;55571.53;5040089;28;20021;-73
2022/09/22 09:52:27;;;;;;;3.88;3.08;;;;;;;-140.66;100.00;55571.53;5054845;28;20036;-76
2022/09/22 09:55:24;;;;;;;5.15;2.90;;;;;;;-140.66;100.00;55571.53;5054699;28;20060;-75
2022/09/22 10:00:29;;;;;;;5.30;3.03;;;;;;;-140.66;100.00;55571.53;5041062;28;20040;-74
2022/09/22 10:01:17;;;;;;;3.13;2.58;;;;;;;-140.66;100.00;55571.53;5054694;28;20036;-74
2022/09/22 10:04:02;;;;;;;3.97;2.88;;;;;;;-140.66;100.00;55571.53;5055198;28;20025;-73
2022/09/22 10:06:48;;;;;;;4.80;2.97;;;;;;;-140.66;100.00;55571.53;5054989;28;20063;-79
2022/09/22 10:09:34;;;;;;;3.00;2.47;;;;;;;-140.66;100.00;55571.53;5040507;28;20032;-73
2022/09/22 10:12:20;;;;;;;3.72;3.40;;;;;;;-140.66;100.00;55571.53;5056155;28;20182;-73
2022/09/22 10:15:24;;;;;;;3.92;2.85;;;;;;;-140.66;100.00;55571.53;5054518;28;20104;-75
2022/09/22 10:18:39;;;;;;;4.00;2.92;;;;;;;-140.66;100.00;55571.53;5055347;28;20025;-74
2022/09/22 10:21:26;;;;;;;3.47;2.88;;;;;;;-140.66;100.00;55571.53;5054572;28;20029;-74
2022/09/22 10:24:29;;;;;;;4.60;2.90;;;;;;;-140.66;100.00;55571.53;5054400;28;20449;-73
2022/09/22 10:27:19;;;;;;;3.95;3.05;;;;;;;-140.66;100.00;55571.53;5055059;28;20040;-72
2022/09/22 10:30:20;;;;;;;3.53;2.90;;;;;;;-140.66;100.00;55571.53;5039699;28;20047;-73
2022/09/22 10:33:20;;;;;;;5.32;2.88;;;;;;;-140.66;100.00;55571.53;5054659;28;20032;-75
2022/09/22 10:36:10;;;;;;;5.47;2.92;;;;;;;-140.66;100.00;55571.53;5054486;28;20032;-74
2022/09/22 10:38:56;;;;;;;4.95;3.03;;;;;;;-140.66;100.00;55571.53;5054664;28;20469;-74
2022/09/22 10:41:42;;;;;;;4.43;2.67;;;;;;;-140.66;100.00;55571.53;5054290;28;20481;-74
2022/09/22 10:44:30;;;;;;;5.72;2.90;;;;;;;-140.66;100.00;55571.53;5054658;28;20035;-75
2022/09/22 10:47:31;;;;;;;3.03;2.72;;;;;;;-140.66;100.00;55571.53;5039434;28;20107;-74
2022/09/22 10:50:38;;;;;;;5.88;3.08;;;;;;;-140.66;100.00;55571.53;5054004;28;20036;-74
2022/09/22 10:53:34;;;;;;;3.60;2.78;;;;;;;-140.66;100.00;55571.53;5053186;28;20031;-75
2022/09/22 10:56:20;;;;;;;21.48;3.38;;;;;;;-140.66;100.00;55571.53;5053573;28;20060;-74
2022/09/22 10:59:17;;;;;;;2.53;2.33;;;;;;;-140.66;100.00;55571.53;5053755;28;20368;-74
2022/09/22 11:02:46;;;;;;;4.60;2.90;;;;;;;-140.66;100.00;55571.53;5054265;28;20024;-74
2022/09/22 11:12:22;;;;;;;4.43;2.50;;;;;;;-140.66;100.00;55571.53;5057498;28;20071;-75
2022/09/22 11:15:16;;;;;;;3.35;2.55;;;;;;;-140.66;100.00;55571.53;5042517;28;20028;-75
2022/09/22 11:18:25;;;;;;;3.92;2.40;;;;;;;-140.66;100.00;55571.53;5056787;28;20040;-74
2022/09/22 11:21:23;;;;;;;4.80;2.75;;;;;;;-140.66;100.00;55571.53;5043029;28;20043;-74
2022/09/22 11:24:31;;;;;;;3.30;2.20;;;;;;;-140.66;100.00;55571.53;5057567;28;20028;-74
2022/09/22 11:27:51;;;;;;;2.90;2.60;;;;;;;-140.66;100.00;55571.53;5057589;28;20056;-73
2022/09/22 11:30:46;;;;;;;2.90;2.25;;;;;;;-140.66;100.00;55571.53;5041148;28;20127;-74
2022/09/22 11:33:59;;;;;;;3.40;2.20;;;;;;;-140.66;100.00;55571.53;5057866;28;20029;-74
2022/09/22 11:37:24;;;;;;;2.85;2.20;;;;;;;-140.66;100.00;55571.53;5042404;28;20029;-74
2022/09/22 11:40:38;;;;;;;3.63;2.00;;;;;;;-140.66;100.00;55571.53;5057668;28;20025;-75
2022/09/22 11:43:50;;;;;;;4.18;2.10;;;;;;;-140.66;100.00;55571.53;5057613;28;20025;-74
2022/09/22 11:47:06;;;;;;;2.33;1.90;;;;;;;-140.66;100.00;55571.53;5057927;28;20040;-73
2022/09/22 11:49:53;;;;;;;3.05;2.15;;;;;;;-140.66;100.00;55571.53;5056487;28;20021;-74
2022/09/22 11:53:16;;;;;;;2.22;2.00;;;;;;;-140.66;100.00;55571.53;5042972;28;20033;-74
2022/09/22 11:56:27;;;;;;;2.00;1.80;;;;;;;-140.66;100.00;55571.53;5055374;28;20095;-75
2022/09/22 11:59:24;;;;;;;2.95;2.03;;;;;;;-140.66;100.00;55571.53;5055701;28;20464;-73
2022/09/22 12:02:30;;;;;;;2.40;1.90;;;;;;;-140.66;100.00;55571.53;5057462;28;20061;-74
2022/09/22 12:05:19;;;;;;;2.90;2.00;;;;;;;-140.66;100.00;55571.53;5056996;28;20025;-74
2022/09/22 12:08:10;;;;;;;2.25;1.95;;;;;;;-140.66;100.00;55571.53;5041822;28;20515;-73
2022/09/22 12:10:57;;;;;;;5.72;2.17;;;;;;;-140.66;100.00;55571.53;5056753;28;20033;-74
2022/09/22 12:13:47;;;;;;;5.57;2.38;;;;;;;-140.66;100.00;55571.53;5057029;28;20032;-75
2022/09/22 12:16:40;;;;;;;5.88;2.08;;;;;;;-140.66;100.00;55571.53;5056226;28;20354;-74
2022/09/22 12:19:54;;;;;;;3.70;1.92;;;;;;;-140.66;100.00;55571.53;5057091;28;20028;-74
2022/09/22 12:23:10;;;;;;;2.05;1.67;;;;;;;-140.66;100.00;55571.53;5056569;28;20361;-75
2022/09/22 12:26:01;;;;;;;2.42;1.40;;;;;;;-140.66;100.00;55571.53;5056510;28;20024;-73
2022/09/22 12:28:47;;;;;;;1.80;1.50;;;;;;;-140.66;100.00;55571.53;5056573;28;20353;-74
2022/09/22 12:31:35;;;;;;;4.82;1.50;;;;;;;-140.66;100.00;55571.53;5056461;28;20087;-74
2022/09/22 12:34:25;;;;;;;1.83;1.52;;;;;;;-140.66;100.00;55571.53;5056339;28;20036;-75
2022/09/22 12:37:13;;;;;;;2.30;1.50;;;;;;;-140.66;100.00;55571.53;5056357;28;20446;-74
2022/09/22 12:40:29;;;;;;;2.13;1.20;;;;;;;-140.66;100.00;55571.53;5056315;28;20496;-75
2022/09/22 12:43:20;;;;;;;1.67;1.42;;;;;;;-140.66;100.00;55571.53;5056321;28;20089;-74
2022/09/22 12:46:20;;;;;;;3.92;1.60;;;;;;;-140.66;100.00;55571.53;5056835;28;20025;-74
2022/09/22 12:49:08;;;;;;;1.85;1.40;;;;;;;-140.66;100.00;55571.53;5041429;28;20037;-76
2022/09/22 12:51:54;;;;;;;2.05;1.70;;;;;;;-140.66;100.00;55571.53;5043041;28;20108;-75
2022/09/22 12:54:39;;;;;;;2.60;1.80;;;;;;;-140.66;100.00;55571.53;5055780;28;20146;-74
2022/09/22 12:57:26;;;;;;;2.53;1.80;;;;;;;-140.66;100.00;55571.53;5056074;28;20043;-74
2022/09/22 13:00:19;;;;;;;2.95;1.55;;;;;;;-140.66;100.00;55571.53;5056211;28;20025;-74
2022/09/22 13:03:23;;;;;;;1.85;1.60;;;;;;;-140.66;100.00;55571.53;5067738;28;20119;-73
2022/09/22 13:06:21;;;;;;;2.90;1.98;;;;;;;-140.66;100.00;55571.53;5057172;28;20052;-76
2022/09/22 13:09:18;;;;;;;6.13;1.90;;;;;;;-140.66;100.00;55571.53;5056706;28;20029;-76